createdAt,value
2023-03-26T00:01:40.920Z,74.41
2023-03-26T00:04:08.508Z,74.00
2023-03-26T00:06:40.016Z,74.58
2023-03-26T00:09:09.692Z,74.20
2023-03-26T00:11:36.823Z,74.46
2023-03-26T00:14:05.877Z,74.22
2023-03-26T00:16:40.615Z,74.05
2023-03-26T00:19:08.390Z,73.39
2023-03-26T00:21:35.517Z,73.13
2023-03-26T00:24:06.652Z,73.42
2023-03-26T00:26:38.802Z,73.30
2023-03-26T00:29:07.221Z,73.12
2023-03-26T00:31:34.684Z,73.17
2023-03-26T00:34:04.054Z,73.12
2023-03-26T00:36:31.515Z,73.31
2023-03-26T00:38:58.672Z,73.15
2023-03-26T00:41:27.213Z,73.36
2023-03-26T00:43:57.125Z,73.37
2023-03-26T00:46:37.550Z,72.93
2023-03-26T00:49:04.633Z,72.80
2023-03-26T00:51:32.241Z,72.73
2023-03-26T00:53:59.358Z,72.61
2023-03-26T00:56:27.062Z,72.62
2023-03-26T00:58:54.172Z,72.81
2023-03-26T01:01:29.274Z,72.83
2023-03-26T01:04:08.957Z,73.19
2023-03-26T01:06:39.755Z,73.39
2023-03-26T01:09:20.266Z,73.19
2023-03-26T01:11:49.069Z,73.29
2023-03-26T01:14:25.467Z,73.57
2023-03-26T01:17:04.434Z,73.63
2023-03-26T01:19:52.538Z,73.80
2023-03-26T01:22:24.837Z,73.79
2023-03-26T01:24:57.015Z,73.96
2023-03-26T01:27:36.191Z,74.19
2023-03-26T01:30:27.809Z,74.07
2023-03-26T01:33:20.836Z,74.09
2023-03-26T01:36:29.388Z,74.28
2023-03-26T01:39:25.611Z,74.21
2023-03-26T01:41:58.725Z,74.69
2023-03-26T01:44:50.741Z,74.19
2023-03-26T01:47:18.802Z,74.59
2023-03-26T01:49:46.017Z,74.41
2023-03-26T01:52:20.086Z,74.65
2023-03-26T01:54:47.733Z,74.83
2023-03-26T01:57:40.012Z,74.98
2023-03-26T02:00:19.787Z,74.97
2023-03-26T02:02:59.459Z,74.99
2023-03-26T02:05:36.090Z,74.87
2023-03-26T02:08:17.069Z,75.02
2023-03-26T02:10:47.796Z,74.71
2023-03-26T02:13:15.680Z,74.86
2023-03-26T02:15:56.186Z,75.21
2023-03-26T02:18:24.440Z,75.24
2023-03-26T02:20:55.966Z,75.54
2023-03-26T02:23:23.399Z,75.39
2023-03-26T02:25:50.564Z,74.96
2023-03-26T02:28:17.965Z,75.05
2023-03-26T02:30:46.328Z,74.99
2023-03-26T02:33:15.998Z,74.91
2023-03-26T02:35:46.372Z,75.00
2023-03-26T02:38:15.014Z,75.01
2023-03-26T02:40:42.256Z,75.76
2023-03-26T02:43:09.503Z,75.25
2023-03-26T02:45:36.577Z,75.30
2023-03-26T02:48:04.156Z,75.12
2023-03-26T02:50:33.240Z,75.24
2023-03-26T02:53:01.162Z,75.48
2023-03-26T02:55:28.822Z,75.42
2023-03-26T02:57:56.852Z,75.52
2023-03-26T03:00:23.955Z,75.09
2023-03-26T03:02:51.099Z,75.15
2023-03-26T03:05:18.772Z,75.06
2023-03-26T03:07:46.999Z,75.70
2023-03-26T03:10:15.804Z,75.08
2023-03-26T03:12:43.675Z,75.64
2023-03-26T03:15:11.850Z,75.62
2023-03-26T03:17:38.958Z,75.82
2023-03-26T03:20:09.563Z,76.04
2023-03-26T03:22:36.972Z,76.00
2023-03-26T03:25:05.887Z,75.90
2023-03-26T03:27:33.115Z,76.05
2023-03-26T03:30:00.197Z,75.92
2023-03-26T03:32:28.036Z,76.03
2023-03-26T03:34:55.319Z,75.77
2023-03-26T03:37:22.357Z,76.02
2023-03-26T03:39:49.642Z,75.50
2023-03-26T03:42:16.824Z,75.95
2023-03-26T03:44:44.171Z,75.73
2023-03-26T03:47:14.089Z,75.77
2023-03-26T03:49:41.639Z,75.78
2023-03-26T03:52:08.922Z,75.82
2023-03-26T03:54:36.698Z,75.64
2023-03-26T03:57:03.948Z,75.76
2023-03-26T03:59:31.372Z,75.48
2023-03-26T04:01:58.770Z,75.23
2023-03-26T04:04:26.455Z,74.90
2023-03-26T04:06:53.429Z,74.99
2023-03-26T04:09:20.882Z,74.83
2023-03-26T04:11:48.279Z,74.65
2023-03-26T04:14:15.373Z,74.60
2023-03-26T04:16:42.602Z,74.37
2023-03-26T04:19:09.799Z,74.39
2023-03-26T04:21:38.056Z,74.58
2023-03-26T04:24:06.443Z,74.59
2023-03-26T04:26:33.375Z,74.65
2023-03-26T04:29:03.960Z,74.75
2023-03-26T04:31:31.587Z,74.88
2023-03-26T04:34:14.290Z,74.43
2023-03-26T04:36:42.949Z,74.88
2023-03-26T04:39:13.649Z,74.94
2023-03-26T04:41:40.828Z,74.70
2023-03-26T04:44:07.766Z,74.39
2023-03-26T04:46:35.370Z,74.20
2023-03-26T04:49:02.571Z,74.22
2023-03-26T04:51:38.724Z,74.36
2023-03-26T04:54:08.461Z,74.18
2023-03-26T04:56:52.141Z,73.87
2023-03-26T04:59:26.668Z,74.15
2023-03-26T05:01:54.558Z,74.38
2023-03-26T05:04:21.628Z,74.24
2023-03-26T05:06:49.064Z,74.26
2023-03-26T05:09:16.679Z,74.05
2023-03-26T05:11:43.881Z,73.78
2023-03-26T05:14:11.484Z,73.85
2023-03-26T05:16:40.004Z,73.53
2023-03-26T05:19:07.411Z,73.17
2023-03-26T05:21:35.193Z,73.40
2023-03-26T05:24:02.657Z,73.23
2023-03-26T05:26:29.927Z,73.40
2023-03-26T05:28:57.281Z,73.29
2023-03-26T05:31:25.085Z,73.32
2023-03-26T05:33:52.858Z,73.13
2023-03-26T05:36:20.316Z,73.14
2023-03-26T05:38:50.289Z,73.23
2023-03-26T05:41:18.208Z,73.21
2023-03-26T05:43:46.461Z,73.16
2023-03-26T05:46:14.532Z,72.89
2023-03-26T05:48:41.885Z,72.94
2023-03-26T05:51:09.664Z,72.84
2023-03-26T05:53:36.770Z,72.71
2023-03-26T05:56:04.780Z,72.32
2023-03-26T05:58:36.769Z,72.43
2023-03-26T06:01:17.147Z,72.21
2023-03-26T06:03:46.156Z,72.16
2023-03-26T06:06:16.516Z,72.26
2023-03-26T06:08:47.495Z,72.16
2023-03-26T06:11:15.265Z,72.59
2023-03-26T06:13:43.371Z,72.48
2023-03-26T06:16:25.979Z,72.22
2023-03-26T06:18:56.653Z,72.07
2023-03-26T06:21:26.000Z,72.26
2023-03-26T06:23:53.607Z,72.27
2023-03-26T06:26:21.645Z,72.32
2023-03-26T06:28:48.767Z,71.81
2023-03-26T06:31:17.661Z,71.75
2023-03-26T06:33:45.374Z,71.34
2023-03-26T06:36:12.383Z,71.77
2023-03-26T06:38:39.780Z,71.43
2023-03-26T06:41:08.154Z,70.88
2023-03-26T06:43:36.749Z,70.35
2023-03-26T06:46:04.852Z,70.37
2023-03-26T06:48:32.240Z,70.78
2023-03-26T06:51:08.950Z,70.35
2023-03-26T06:53:41.973Z,69.98
2023-03-26T06:56:18.897Z,70.19
2023-03-26T06:58:51.387Z,69.92
2023-03-26T07:01:18.626Z,70.25
2023-03-26T07:03:46.147Z,69.48
2023-03-26T07:06:13.512Z,69.23
2023-03-26T07:08:40.784Z,69.32
2023-03-26T07:11:08.023Z,68.95
2023-03-26T07:13:35.469Z,69.13
2023-03-26T07:16:03.108Z,68.89
2023-03-26T07:18:30.440Z,69.13
2023-03-26T07:20:58.052Z,68.16
2023-03-26T07:23:25.712Z,68.19
2023-03-26T07:25:53.365Z,68.58
2023-03-26T07:28:34.593Z,67.32
2023-03-26T07:31:35.095Z,67.90
2023-03-26T07:34:05.665Z,67.71
2023-03-26T07:36:48.794Z,68.05
2023-03-26T07:39:44.968Z,67.94
2023-03-26T07:42:28.709Z,67.33
2023-03-26T07:45:13.144Z,66.60
2023-03-26T07:47:43.222Z,65.98
2023-03-26T07:50:19.128Z,65.54
2023-03-26T07:52:46.972Z,66.44
2023-03-26T07:55:16.064Z,63.43
2023-03-26T07:58:17.621Z,62.33
2023-03-26T08:00:57.512Z,62.67
2023-03-26T08:03:30.864Z,62.32
2023-03-26T08:06:09.065Z,63.20
2023-03-26T08:08:45.999Z,61.88
2023-03-26T08:11:35.035Z,61.23
2023-03-26T08:14:20.272Z,61.72
2023-03-26T08:16:56.650Z,61.33
2023-03-26T08:19:29.516Z,61.28
2023-03-26T08:22:06.913Z,61.20
2023-03-26T08:24:47.827Z,60.48
2023-03-26T08:27:38.537Z,60.60
2023-03-26T08:30:17.593Z,59.66
2023-03-26T08:32:54.354Z,58.27
2023-03-26T08:35:21.654Z,57.20
2023-03-26T08:37:48.569Z,56.99
2023-03-26T08:40:46.434Z,56.86
2023-03-26T08:43:44.374Z,55.73
2023-03-26T08:46:30.931Z,55.40
2023-03-26T08:49:29.679Z,52.98
2023-03-26T08:52:34.530Z,52.76
2023-03-26T08:55:17.118Z,51.53
2023-03-26T08:58:21.758Z,51.87
2023-03-26T09:01:17.531Z,51.51
2023-03-26T09:04:13.666Z,52.28
2023-03-26T09:06:48.695Z,52.66
2023-03-26T09:09:31.273Z,52.13
2023-03-26T09:12:36.191Z,52.43
2023-03-26T09:15:28.479Z,53.53
2023-03-26T09:17:58.584Z,53.58
2023-03-26T09:20:44.146Z,53.98
2023-03-26T09:23:45.471Z,53.69
2023-03-26T09:26:25.358Z,53.08
2023-03-26T09:29:10.540Z,53.20
2023-03-26T09:32:02.830Z,53.93
2023-03-26T09:34:33.277Z,53.49
2023-03-26T09:37:21.900Z,53.44
2023-03-26T09:40:18.875Z,54.01
2023-03-26T09:43:17.181Z,54.41
2023-03-26T09:45:52.902Z,54.63
2023-03-26T09:48:58.514Z,54.62
2023-03-26T09:51:27.739Z,54.07
2023-03-26T09:54:32.351Z,54.02
2023-03-26T09:57:09.021Z,54.53
2023-03-26T09:59:51.944Z,53.77
2023-03-26T10:02:46.234Z,54.67
2023-03-26T10:05:30.451Z,54.20
2023-03-26T10:08:25.418Z,54.72
2023-03-26T10:10:58.652Z,53.95
2023-03-26T10:13:43.979Z,53.33
2023-03-26T10:16:30.139Z,52.06
2023-03-26T10:19:20.311Z,52.35
2023-03-26T10:22:11.981Z,51.83
2023-03-26T10:25:19.740Z,50.68
2023-03-26T10:28:07.820Z,51.64
2023-03-26T10:30:48.771Z,52.10
2023-03-26T10:33:38.458Z,50.71
2023-03-26T10:36:23.372Z,49.85
2023-03-26T10:39:09.599Z,48.45
2023-03-26T10:41:45.975Z,49.07
2023-03-26T10:44:46.055Z,48.69
2023-03-26T10:47:24.970Z,49.01
2023-03-26T10:50:23.124Z,48.91
2023-03-26T10:53:53.164Z,47.64
2023-03-26T10:56:33.273Z,46.52
2023-03-26T10:59:05.987Z,46.92
2023-03-26T11:01:33.323Z,48.12
2023-03-26T11:04:32.562Z,49.02
2023-03-26T11:07:07.500Z,47.64
2023-03-26T11:09:54.335Z,46.17
2023-03-26T11:12:25.798Z,43.03
2023-03-26T11:15:16.543Z,43.04
2023-03-26T11:18:01.973Z,42.42
2023-03-26T11:21:19.770Z,43.06
2023-03-26T11:24:17.403Z,43.20
2023-03-26T11:26:56.173Z,44.03
2023-03-26T11:29:53.664Z,43.81
2023-03-26T11:32:38.590Z,43.13
2023-03-26T11:35:40.540Z,43.03
2023-03-26T11:38:34.032Z,43.70
2023-03-26T11:41:04.203Z,43.48
2023-03-26T11:43:37.723Z,43.77
2023-03-26T11:46:15.103Z,43.63
2023-03-26T11:48:51.332Z,44.85
2023-03-26T11:51:33.502Z,45.65
2023-03-26T11:54:03.406Z,45.90
2023-03-26T11:57:05.594Z,45.04
2023-03-26T11:59:53.152Z,45.93
2023-03-26T12:02:32.930Z,46.62
2023-03-26T12:05:18.852Z,46.07
2023-03-26T12:07:47.240Z,46.11
2023-03-26T12:10:29.443Z,47.38
2023-03-26T12:13:02.546Z,47.29
2023-03-26T12:15:34.246Z,47.22
2023-03-26T12:18:28.964Z,48.43
2023-03-26T12:21:09.227Z,48.20
2023-03-26T12:24:06.423Z,49.45
2023-03-26T12:26:36.878Z,49.96
2023-03-26T12:29:17.888Z,49.88
2023-03-26T12:32:03.641Z,49.27
2023-03-26T12:34:35.685Z,48.76
2023-03-26T12:37:05.077Z,49.27
2023-03-26T12:40:07.134Z,49.61
2023-03-26T12:44:47.214Z,49.13
2023-03-26T12:45:37.972Z,48.86
2023-03-26T12:48:05.781Z,47.83
2023-03-26T12:50:44.639Z,46.96
2023-03-26T12:53:23.515Z,46.23
2023-03-26T12:56:02.235Z,45.12
2023-03-26T12:58:44.378Z,45.16
2023-03-26T13:01:16.259Z,45.29
2023-03-26T13:04:07.196Z,45.59
2023-03-26T13:06:59.260Z,45.40
2023-03-26T13:09:56.400Z,45.06
2023-03-26T13:12:42.224Z,45.08
2023-03-26T13:15:39.204Z,44.45
2023-03-26T13:18:33.340Z,44.22
2023-03-26T13:21:23.843Z,44.98
2023-03-26T13:24:14.227Z,44.89
2023-03-26T13:27:13.626Z,45.98
2023-03-26T13:29:41.130Z,45.37
2023-03-26T13:32:40.559Z,45.05
2023-03-26T13:35:14.247Z,45.76
2023-03-26T13:37:56.321Z,45.69
2023-03-26T13:40:39.507Z,44.96
2023-03-26T13:43:44.444Z,44.87
2023-03-26T13:46:14.342Z,45.13
2023-03-26T13:49:00.419Z,45.73
2023-03-26T13:51:49.213Z,45.81
2023-03-26T13:54:23.849Z,46.08
2023-03-26T13:57:33.568Z,46.58
2023-03-26T14:00:13.078Z,45.69
2023-03-26T14:02:42.435Z,46.37
2023-03-26T14:05:25.323Z,46.27
2023-03-26T14:08:21.924Z,46.53
2023-03-26T14:11:14.712Z,47.18
2023-03-26T14:13:47.606Z,46.80
2023-03-26T14:16:25.966Z,46.35
2023-03-26T14:19:29.808Z,46.29
2023-03-26T14:22:08.480Z,46.03
2023-03-26T14:24:54.818Z,46.82
2023-03-26T14:27:43.523Z,46.69
2023-03-26T14:30:39.967Z,47.24
2023-03-26T14:33:34.745Z,47.25
2023-03-26T14:36:16.170Z,47.34
2023-03-26T14:39:01.672Z,47.76
2023-03-26T14:41:57.281Z,45.24
2023-03-26T14:44:56.806Z,44.80
2023-03-26T14:47:27.591Z,45.33
2023-03-26T14:50:14.559Z,44.62
2023-03-26T14:53:01.263Z,43.26
2023-03-26T14:55:43.958Z,43.76
2023-03-26T14:58:29.762Z,44.37
2023-03-26T15:01:42.032Z,44.64
2023-03-26T15:04:33.565Z,44.94
2023-03-26T15:07:45.248Z,44.58
2023-03-26T15:10:23.029Z,44.54
2023-03-26T15:13:22.254Z,44.34
2023-03-26T15:15:58.405Z,44.84
2023-03-26T15:18:58.961Z,44.65
2023-03-26T15:21:47.842Z,46.03
2023-03-26T15:24:31.382Z,45.83
2023-03-26T15:27:16.963Z,46.31
2023-03-26T15:30:06.880Z,46.51
2023-03-26T15:33:23.062Z,46.30
2023-03-26T15:36:19.815Z,46.51
2023-03-26T15:39:18.120Z,46.09
2023-03-26T15:41:50.319Z,46.69
2023-03-26T15:44:29.407Z,46.83
2023-03-26T15:47:28.631Z,46.78
2023-03-26T15:50:08.835Z,47.70
2023-03-26T15:52:43.296Z,46.99
2023-03-26T15:55:23.414Z,47.46
2023-03-26T15:58:24.322Z,47.96
2023-03-26T16:01:03.240Z,48.10
2023-03-26T16:03:39.453Z,48.42
2023-03-26T16:06:31.388Z,48.70
2023-03-26T16:09:40.960Z,48.82
2023-03-26T16:12:29.210Z,49.07
2023-03-26T16:15:16.872Z,49.34
2023-03-26T16:18:16.378Z,49.23
2023-03-26T16:20:57.500Z,49.25
2023-03-26T16:23:32.330Z,49.33
2023-03-26T16:26:13.377Z,48.61
2023-03-26T16:28:46.003Z,48.64
2023-03-26T16:31:36.918Z,48.72
2023-03-26T16:34:05.618Z,49.09
2023-03-26T16:36:35.027Z,48.72
2023-03-26T16:39:11.860Z,49.39
2023-03-26T16:41:50.559Z,49.88
2023-03-26T16:44:59.280Z,49.53
2023-03-26T16:47:39.011Z,49.27
2023-03-26T16:50:32.973Z,49.15
2023-03-26T16:53:30.187Z,49.20
2023-03-26T16:56:02.904Z,48.98
2023-03-26T16:58:56.562Z,49.27
2023-03-26T17:01:56.927Z,49.60
2023-03-26T17:04:30.802Z,49.89
2023-03-26T17:07:09.135Z,49.69
2023-03-26T17:10:10.046Z,50.08
2023-03-26T17:13:03.199Z,50.68
2023-03-26T17:15:47.377Z,50.34
2023-03-26T17:18:26.610Z,50.31
2023-03-26T17:21:10.157Z,49.53
2023-03-26T17:23:39.081Z,49.14
2023-03-26T17:26:31.726Z,48.94
2023-03-26T17:29:27.644Z,49.20
2023-03-26T17:32:12.158Z,49.07
2023-03-26T17:34:47.343Z,49.71
2023-03-26T17:37:17.379Z,50.33
2023-03-26T17:39:45.743Z,50.45
2023-03-26T17:42:33.522Z,50.80
2023-03-26T17:45:17.849Z,51.23
2023-03-26T17:47:51.741Z,51.67
2023-03-26T17:50:27.682Z,52.51
2023-03-26T17:53:04.089Z,53.62
2023-03-26T17:55:35.210Z,54.26
2023-03-26T17:58:05.435Z,55.46
2023-03-26T18:00:40.683Z,55.32
2023-03-26T18:03:24.523Z,56.45
2023-03-26T18:05:56.854Z,57.95
2023-03-26T18:08:55.367Z,58.64
2023-03-26T18:11:43.683Z,59.96
2023-03-26T18:14:26.721Z,61.06
2023-03-26T18:16:58.966Z,62.59
2023-03-26T18:19:27.219Z,61.39
2023-03-26T18:21:57.927Z,61.83
2023-03-26T18:24:30.553Z,61.77
2023-03-26T18:27:11.993Z,62.68
2023-03-26T18:30:02.819Z,62.41
2023-03-26T18:32:34.068Z,63.21
2023-03-26T18:35:03.290Z,63.15
2023-03-26T18:37:36.426Z,63.97
2023-03-26T18:40:12.503Z,64.45
2023-03-26T18:42:41.696Z,65.30
2023-03-26T18:45:34.051Z,65.20
2023-03-26T18:48:21.690Z,65.07
2023-03-26T18:50:55.042Z,65.66
2023-03-26T18:53:30.021Z,65.91
2023-03-26T18:55:58.471Z,66.62
2023-03-26T18:58:33.118Z,66.86
2023-03-26T19:01:16.942Z,66.96
2023-03-26T19:03:51.396Z,67.06
2023-03-26T19:06:21.234Z,67.30
2023-03-26T19:08:49.044Z,67.97
2023-03-26T19:11:17.892Z,68.12
2023-03-26T19:13:50.888Z,68.77
2023-03-26T19:16:26.065Z,69.07
2023-03-26T19:18:54.167Z,69.13
2023-03-26T19:21:23.533Z,69.48
2023-03-26T19:23:52.599Z,69.86
2023-03-26T19:26:19.843Z,70.46
2023-03-26T19:28:54.559Z,70.75
2023-03-26T19:31:28.129Z,71.88
2023-03-26T19:34:02.567Z,72.38
2023-03-26T19:36:32.751Z,71.87
2023-03-26T19:38:59.653Z,72.34
2023-03-26T19:41:32.576Z,72.01
2023-03-26T19:44:02.000Z,72.49
2023-03-26T19:46:52.873Z,72.71
2023-03-26T19:49:58.080Z,73.01
2023-03-26T19:52:36.916Z,73.62
2023-03-26T19:55:19.099Z,74.21
2023-03-26T19:57:46.279Z,74.41
2023-03-26T20:00:14.748Z,74.33
2023-03-26T20:02:43.406Z,74.50
2023-03-26T20:05:25.967Z,75.26
2023-03-26T20:07:58.677Z,75.33
2023-03-26T20:10:26.359Z,75.20
2023-03-26T20:12:53.656Z,75.37
2023-03-26T20:15:24.729Z,75.92
2023-03-26T20:17:54.859Z,76.25
2023-03-26T20:20:25.006Z,76.12
2023-03-26T20:22:54.139Z,76.01
2023-03-26T20:25:50.220Z,76.33
2023-03-26T20:28:19.400Z,76.82
2023-03-26T20:30:48.468Z,77.17
2023-03-26T20:33:19.490Z,76.75
2023-03-26T20:35:47.492Z,76.40
2023-03-26T20:38:14.715Z,76.81
2023-03-26T20:40:41.816Z,77.52
2023-03-26T20:43:14.081Z,77.62
2023-03-26T20:45:41.118Z,77.95
2023-03-26T20:48:12.143Z,78.29
2023-03-26T20:50:50.482Z,78.29
2023-03-26T20:53:19.262Z,78.72
2023-03-26T20:55:47.961Z,79.43
2023-03-26T20:58:31.530Z,80.05
2023-03-26T21:01:02.563Z,79.67
2023-03-26T21:03:29.997Z,80.76
2023-03-26T21:06:01.280Z,80.21
2023-03-26T21:08:35.610Z,80.25
2023-03-26T21:11:04.978Z,80.31
2023-03-26T21:13:43.983Z,80.40
2023-03-26T21:16:12.428Z,80.64
2023-03-26T21:18:40.331Z,80.80
2023-03-26T21:21:42.072Z,80.74
2023-03-26T21:24:15.064Z,80.66
2023-03-26T21:26:55.395Z,81.11
2023-03-26T21:29:23.175Z,80.99
2023-03-26T21:31:52.170Z,81.46
2023-03-26T21:34:22.517Z,81.06
2023-03-26T21:36:59.798Z,81.47
2023-03-26T21:39:31.085Z,81.39
2023-03-26T21:42:05.436Z,81.46
2023-03-26T21:44:35.978Z,81.80
2023-03-26T21:47:12.007Z,82.70
2023-03-26T21:49:43.626Z,82.76
2023-03-26T21:52:15.230Z,82.51
2023-03-26T21:54:43.414Z,83.24
2023-03-26T21:57:21.621Z,82.88
2023-03-26T22:00:28.209Z,83.41
2023-03-26T22:03:21.855Z,83.47
2023-03-26T22:06:02.662Z,82.95
2023-03-26T22:08:41.704Z,82.75
2023-03-26T22:11:11.045Z,82.85
2023-03-26T22:13:39.355Z,83.13
2023-03-26T22:16:09.068Z,83.06
2023-03-26T22:18:36.002Z,83.86
2023-03-26T22:21:02.887Z,84.35
2023-03-26T22:23:36.639Z,84.29
2023-03-26T22:26:05.071Z,84.43
2023-03-26T22:28:32.295Z,84.32
2023-03-26T22:30:59.967Z,84.68
2023-03-26T22:33:27.274Z,84.56
2023-03-26T22:35:56.118Z,84.57
2023-03-26T22:38:23.297Z,84.80
2023-03-26T22:40:58.143Z,84.88
2023-03-26T22:43:25.224Z,85.33
2023-03-26T22:45:54.440Z,85.14
2023-03-26T22:48:23.935Z,85.59
2023-03-26T22:51:05.691Z,86.17
2023-03-26T22:53:32.906Z,86.28
2023-03-26T22:56:00.145Z,87.42
2023-03-26T22:58:27.495Z,87.76
2023-03-26T23:01:08.427Z,87.98
2023-03-26T23:03:37.157Z,87.75
2023-03-26T23:06:07.184Z,88.12
2023-03-26T23:08:36.471Z,88.06
2023-03-26T23:11:08.652Z,88.44
2023-03-26T23:13:35.531Z,88.14
2023-03-26T23:18:29.068Z,88.39
2023-03-26T23:20:57.862Z,87.87
2023-03-26T23:23:31.213Z,88.16
2023-03-26T23:26:00.378Z,87.91
2023-03-26T23:28:30.534Z,87.85
2023-03-26T23:30:57.568Z,87.74
2023-03-26T23:33:26.626Z,87.42
2023-03-26T23:36:00.198Z,87.19
2023-03-26T23:38:43.553Z,87.07
2023-03-26T23:41:15.447Z,87.77
2023-03-26T23:43:54.276Z,87.49
2023-03-26T23:46:24.175Z,87.31
2023-03-26T23:48:51.947Z,86.89
2023-03-26T23:51:24.291Z,86.79
2023-03-26T23:53:52.818Z,86.87
2023-03-26T23:56:20.490Z,86.69
2023-03-26T23:58:49.114Z,86.59
